sensor_id;sensor_type;location;lat;lon;timestamp;P1;durP1;ratioP1;P2;durP2;ratioP2
16928;SDS011;8581;47.334;11.190;2022-12-18T00:02:22;17.20;;;15.17;;
16928;SDS011;8581;47.334;11.190;2022-12-18T00:04:53;15.93;;;13.83;;
16928;SDS011;8581;47.334;11.190;2022-12-18T00:07:25;16.63;;;14.77;;
16928;SDS011;8581;47.334;11.190;2022-12-18T00:09:57;16.20;;;14.50;;
16928;SDS011;8581;47.334;11.190;2022-12-18T00:12:28;17.50;;;15.07;;
16928;SDS011;8581;47.334;11.190;2022-12-18T00:15:00;17.20;;;14.63;;
16928;SDS011;8581;47.334;11.190;2022-12-18T00:17:31;19.63;;;15.90;;
16928;SDS011;8581;47.334;11.190;2022-12-18T00:20:03;16.00;;;14.17;;
16928;SDS011;8581;47.334;11.190;2022-12-18T00:22:36;17.13;;;14.40;;
16928;SDS011;8581;47.334;11.190;2022-12-18T00:25:07;15.00;;;13.37;;
16928;SDS011;8581;47.334;11.190;2022-12-18T00:27:39;15.40;;;13.20;;
16928;SDS011;8581;47.334;11.190;2022-12-18T00:30:11;14.30;;;12.70;;
16928;SDS011;8581;47.334;11.190;2022-12-18T00:32:43;14.60;;;13.00;;
16928;SDS011;8581;47.334;11.190;2022-12-18T00:35:14;14.63;;;11.80;;
16928;SDS011;8581;47.334;11.190;2022-12-18T00:37:46;12.70;;;10.17;;
16928;SDS011;8581;47.334;11.190;2022-12-18T00:40:17;13.87;;;10.70;;
16928;SDS011;8581;47.334;11.190;2022-12-18T00:42:49;13.97;;;11.30;;
16928;SDS011;8581;47.334;11.190;2022-12-18T00:45:28;14.03;;;12.20;;
16928;SDS011;8581;47.334;11.190;2022-12-18T00:47:59;11.07;;;9.70;;
16928;SDS011;8581;47.334;11.190;2022-12-18T00:50:30;13.00;;;10.40;;
16928;SDS011;8581;47.334;11.190;2022-12-18T00:53:02;12.33;;;10.33;;
16928;SDS011;8581;47.334;11.190;2022-12-18T00:55:34;11.77;;;9.87;;
16928;SDS011;8581;47.334;11.190;2022-12-18T00:58:05;14.43;;;11.60;;
16928;SDS011;8581;47.334;11.190;2022-12-18T01:00:37;15.77;;;12.27;;
16928;SDS011;8581;47.334;11.190;2022-12-18T01:03:09;16.40;;;12.40;;
16928;SDS011;8581;47.334;11.190;2022-12-18T01:05:41;16.57;;;12.20;;
16928;SDS011;8581;47.334;11.190;2022-12-18T01:08:12;14.93;;;11.67;;
16928;SDS011;8581;47.334;11.190;2022-12-18T01:10:43;14.53;;;11.80;;
16928;SDS011;8581;47.334;11.190;2022-12-18T01:13:15;12.87;;;11.03;;
16928;SDS011;8581;47.334;11.190;2022-12-18T01:15:48;12.67;;;10.63;;
16928;SDS011;8581;47.334;11.190;2022-12-18T01:18:19;12.47;;;10.23;;
16928;SDS011;8581;47.334;11.190;2022-12-18T01:20:51;13.40;;;10.87;;
16928;SDS011;8581;47.334;11.190;2022-12-18T01:23:22;14.63;;;10.73;;
16928;SDS011;8581;47.334;11.190;2022-12-18T01:25:54;12.23;;;10.10;;
16928;SDS011;8581;47.334;11.190;2022-12-18T01:28:25;12.13;;;9.63;;
16928;SDS011;8581;47.334;11.190;2022-12-18T01:30:57;12.10;;;10.23;;
16928;SDS011;8581;47.334;11.190;2022-12-18T01:33:29;13.70;;;9.90;;
16928;SDS011;8581;47.334;11.190;2022-12-18T01:36:00;13.37;;;10.07;;
16928;SDS011;8581;47.334;11.190;2022-12-18T01:38:32;11.90;;;10.30;;
16928;SDS011;8581;47.334;11.190;2022-12-18T01:41:03;11.63;;;9.40;;
16928;SDS011;8581;47.334;11.190;2022-12-18T01:43:42;10.97;;;9.50;;
16928;SDS011;8581;47.334;11.190;2022-12-18T01:46:13;11.73;;;9.47;;
16928;SDS011;8581;47.334;11.190;2022-12-18T01:48:45;12.60;;;8.97;;
16928;SDS011;8581;47.334;11.190;2022-12-18T01:51:16;10.90;;;8.63;;
16928;SDS011;8581;47.334;11.190;2022-12-18T01:53:47;12.50;;;9.80;;
16928;SDS011;8581;47.334;11.190;2022-12-18T01:56:19;12.77;;;10.90;;
16928;SDS011;8581;47.334;11.190;2022-12-18T01:58:56;14.80;;;10.87;;
16928;SDS011;8581;47.334;11.190;2022-12-18T02:01:26;12.90;;;9.83;;
16928;SDS011;8581;47.334;11.190;2022-12-18T02:04:16;12.50;;;10.03;;
16928;SDS011;8581;47.334;11.190;2022-12-18T02:06:37;13.53;;;10.23;;
16928;SDS011;8581;47.334;11.190;2022-12-18T02:09:10;14.07;;;10.77;;
16928;SDS011;8581;47.334;11.190;2022-12-18T02:11:59;10.80;;;8.97;;
16928;SDS011;8581;47.334;11.190;2022-12-18T02:14:33;11.80;;;9.17;;
16928;SDS011;8581;47.334;11.190;2022-12-18T02:17:07;13.90;;;10.43;;
16928;SDS011;8581;47.334;11.190;2022-12-18T02:28:06;14.33;;;10.03;;
16928;SDS011;8581;47.334;11.190;2022-12-18T02:30:36;14.03;;;10.17;;
16928;SDS011;8581;47.334;11.190;2022-12-18T02:33:08;11.33;;;9.43;;
16928;SDS011;8581;47.334;11.190;2022-12-18T02:35:40;12.53;;;9.47;;
16928;SDS011;8581;47.334;11.190;2022-12-18T02:38:11;10.40;;;7.83;;
16928;SDS011;8581;47.334;11.190;2022-12-18T02:40:43;10.97;;;8.87;;
16928;SDS011;8581;47.334;11.190;2022-12-18T02:43:15;12.73;;;9.30;;
16928;SDS011;8581;47.334;11.190;2022-12-18T02:45:48;20.47;;;9.60;;
16928;SDS011;8581;47.334;11.190;2022-12-18T02:48:20;14.03;;;9.10;;
16928;SDS011;8581;47.334;11.190;2022-12-18T02:50:55;10.60;;;8.47;;
16928;SDS011;8581;47.334;11.190;2022-12-18T02:53:25;11.57;;;8.67;;
16928;SDS011;8581;47.334;11.190;2022-12-18T02:56:01;13.10;;;8.70;;
16928;SDS011;8581;47.334;11.190;2022-12-18T02:58:45;10.80;;;8.17;;
16928;SDS011;8581;47.334;11.190;2022-12-18T03:01:43;13.57;;;8.00;;
16928;SDS011;8581;47.334;11.190;2022-12-18T03:04:21;10.87;;;7.90;;
16928;SDS011;8581;47.334;11.190;2022-12-18T03:06:54;14.00;;;8.60;;
16928;SDS011;8581;47.334;11.190;2022-12-18T03:09:28;11.07;;;8.10;;
16928;SDS011;8581;47.334;11.190;2022-12-18T03:12:06;11.37;;;8.20;;
16928;SDS011;8581;47.334;11.190;2022-12-18T03:14:52;10.00;;;7.43;;
16928;SDS011;8581;47.334;11.190;2022-12-18T03:17:23;10.50;;;7.73;;
16928;SDS011;8581;47.334;11.190;2022-12-18T03:19:54;19.27;;;6.73;;
16928;SDS011;8581;47.334;11.190;2022-12-18T03:22:26;31.13;;;7.77;;
16928;SDS011;8581;47.334;11.190;2022-12-18T03:24:57;12.40;;;7.17;;
16928;SDS011;8581;47.334;11.190;2022-12-18T03:27:28;9.67;;;7.50;;
16928;SDS011;8581;47.334;11.190;2022-12-18T03:30:02;9.13;;;6.77;;
16928;SDS011;8581;47.334;11.190;2022-12-18T03:32:33;9.27;;;7.33;;
16928;SDS011;8581;47.334;11.190;2022-12-18T03:35:26;8.13;;;6.40;;
16928;SDS011;8581;47.334;11.190;2022-12-18T03:37:57;9.20;;;6.90;;
16928;SDS011;8581;47.334;11.190;2022-12-18T03:40:33;9.73;;;7.40;;
16928;SDS011;8581;47.334;11.190;2022-12-18T03:43:09;8.80;;;6.63;;
16928;SDS011;8581;47.334;11.190;2022-12-18T03:45:42;7.90;;;6.20;;
16928;SDS011;8581;47.334;11.190;2022-12-18T03:48:17;9.33;;;6.10;;
16928;SDS011;8581;47.334;11.190;2022-12-18T03:50:54;8.77;;;6.40;;
16928;SDS011;8581;47.334;11.190;2022-12-18T03:53:32;7.50;;;5.87;;
16928;SDS011;8581;47.334;11.190;2022-12-18T03:56:10;7.97;;;6.03;;
16928;SDS011;8581;47.334;11.190;2022-12-18T03:58:42;9.33;;;5.90;;
16928;SDS011;8581;47.334;11.190;2022-12-18T04:01:13;11.10;;;5.67;;
16928;SDS011;8581;47.334;11.190;2022-12-18T04:03:46;20.23;;;5.27;;
16928;SDS011;8581;47.334;11.190;2022-12-18T04:06:16;6.83;;;5.33;;
16928;SDS011;8581;47.334;11.190;2022-12-18T04:08:48;8.57;;;5.80;;
16928;SDS011;8581;47.334;11.190;2022-12-18T04:11:20;7.37;;;5.37;;
16928;SDS011;8581;47.334;11.190;2022-12-18T04:13:53;6.47;;;5.13;;
16928;SDS011;8581;47.334;11.190;2022-12-18T04:16:24;11.77;;;4.90;;
16928;SDS011;8581;47.334;11.190;2022-12-18T04:18:56;6.47;;;5.17;;
16928;SDS011;8581;47.334;11.190;2022-12-18T04:21:28;8.80;;;5.43;;
16928;SDS011;8581;47.334;11.190;2022-12-18T04:23:59;8.40;;;5.90;;
16928;SDS011;8581;47.334;11.190;2022-12-18T04:26:31;8.07;;;5.57;;
16928;SDS011;8581;47.334;11.190;2022-12-18T04:29:03;7.57;;;5.20;;
16928;SDS011;8581;47.334;11.190;2022-12-18T04:31:34;7.17;;;4.70;;
16928;SDS011;8581;47.334;11.190;2022-12-18T04:34:06;7.37;;;4.43;;
16928;SDS011;8581;47.334;11.190;2022-12-18T04:36:37;6.37;;;4.60;;
16928;SDS011;8581;47.334;11.190;2022-12-18T04:39:09;5.77;;;5.03;;
16928;SDS011;8581;47.334;11.190;2022-12-18T04:41:41;5.37;;;4.40;;
16928;SDS011;8581;47.334;11.190;2022-12-18T04:44:12;7.57;;;5.00;;
16928;SDS011;8581;47.334;11.190;2022-12-18T04:46:44;8.57;;;5.03;;
16928;SDS011;8581;47.334;11.190;2022-12-18T04:49:15;7.17;;;4.87;;
16928;SDS011;8581;47.334;11.190;2022-12-18T04:51:47;6.43;;;4.47;;
16928;SDS011;8581;47.334;11.190;2022-12-18T04:54:19;6.13;;;4.63;;
16928;SDS011;8581;47.334;11.190;2022-12-18T04:56:50;4.87;;;3.80;;
16928;SDS011;8581;47.334;11.190;2022-12-18T04:59:22;6.40;;;3.83;;
16928;SDS011;8581;47.334;11.190;2022-12-18T05:01:53;7.20;;;3.20;;
16928;SDS011;8581;47.334;11.190;2022-12-18T05:04:25;7.40;;;4.27;;
16928;SDS011;8581;47.334;11.190;2022-12-18T05:06:57;7.57;;;4.27;;
16928;SDS011;8581;47.334;11.190;2022-12-18T05:09:29;7.70;;;4.00;;
16928;SDS011;8581;47.334;11.190;2022-12-18T05:12:00;6.30;;;3.60;;
16928;SDS011;8581;47.334;11.190;2022-12-18T05:14:32;6.23;;;4.10;;
16928;SDS011;8581;47.334;11.190;2022-12-18T05:17:03;8.57;;;5.43;;
16928;SDS011;8581;47.334;11.190;2022-12-18T05:19:38;7.00;;;4.53;;
16928;SDS011;8581;47.334;11.190;2022-12-18T05:22:10;7.10;;;4.37;;
16928;SDS011;8581;47.334;11.190;2022-12-18T05:24:41;6.87;;;4.30;;
16928;SDS011;8581;47.334;11.190;2022-12-18T05:27:12;6.53;;;4.03;;
16928;SDS011;8581;47.334;11.190;2022-12-18T05:29:44;5.67;;;4.00;;
16928;SDS011;8581;47.334;11.190;2022-12-18T05:32:16;6.40;;;3.83;;
16928;SDS011;8581;47.334;11.190;2022-12-18T05:34:47;4.70;;;3.40;;
16928;SDS011;8581;47.334;11.190;2022-12-18T05:37:19;8.43;;;4.17;;
16928;SDS011;8581;47.334;11.190;2022-12-18T05:39:50;5.50;;;3.40;;
16928;SDS011;8581;47.334;11.190;2022-12-18T05:42:22;5.53;;;3.57;;
16928;SDS011;8581;47.334;11.190;2022-12-18T05:44:54;9.70;;;3.63;;
16928;SDS011;8581;47.334;11.190;2022-12-18T05:47:26;4.93;;;3.33;;
16928;SDS011;8581;47.334;11.190;2022-12-18T05:49:57;3.83;;;3.33;;
16928;SDS011;8581;47.334;11.190;2022-12-18T05:52:28;4.23;;;2.83;;
16928;SDS011;8581;47.334;11.190;2022-12-18T05:55:00;3.63;;;2.60;;
16928;SDS011;8581;47.334;11.190;2022-12-18T05:57:32;3.67;;;2.87;;
16928;SDS011;8581;47.334;11.190;2022-12-18T06:00:04;4.37;;;2.67;;
16928;SDS011;8581;47.334;11.190;2022-12-18T06:02:36;5.13;;;2.80;;
16928;SDS011;8581;47.334;11.190;2022-12-18T06:05:07;2.87;;;2.37;;
16928;SDS011;8581;47.334;11.190;2022-12-18T06:07:39;4.30;;;2.47;;
16928;SDS011;8581;47.334;11.190;2022-12-18T06:10:11;3.27;;;1.93;;
16928;SDS011;8581;47.334;11.190;2022-12-18T06:12:42;3.33;;;2.27;;
16928;SDS011;8581;47.334;11.190;2022-12-18T06:15:14;4.10;;;3.70;;
16928;SDS011;8581;47.334;11.190;2022-12-18T06:17:45;5.83;;;3.53;;
16928;SDS011;8581;47.334;11.190;2022-12-18T06:20:17;3.07;;;2.27;;
16928;SDS011;8581;47.334;11.190;2022-12-18T06:22:49;3.20;;;2.40;;
16928;SDS011;8581;47.334;11.190;2022-12-18T06:25:20;4.77;;;2.67;;
16928;SDS011;8581;47.334;11.190;2022-12-18T06:27:52;4.60;;;2.60;;
16928;SDS011;8581;47.334;11.190;2022-12-18T06:30:24;6.07;;;2.80;;
16928;SDS011;8581;47.334;11.190;2022-12-18T06:33:01;3.33;;;2.30;;
16928;SDS011;8581;47.334;11.190;2022-12-18T06:35:32;4.47;;;2.23;;
16928;SDS011;8581;47.334;11.190;2022-12-18T06:38:04;4.33;;;2.50;;
16928;SDS011;8581;47.334;11.190;2022-12-18T06:40:36;3.73;;;2.57;;
16928;SDS011;8581;47.334;11.190;2022-12-18T06:43:07;2.50;;;2.13;;
16928;SDS011;8581;47.334;11.190;2022-12-18T06:45:39;2.93;;;2.03;;
16928;SDS011;8581;47.334;11.190;2022-12-18T06:48:11;2.90;;;2.40;;
16928;SDS011;8581;47.334;11.190;2022-12-18T06:50:42;4.43;;;2.03;;
16928;SDS011;8581;47.334;11.190;2022-12-18T06:53:14;3.30;;;2.30;;
16928;SDS011;8581;47.334;11.190;2022-12-18T06:55:46;9.90;;;2.53;;
16928;SDS011;8581;47.334;11.190;2022-12-18T06:58:17;2.63;;;2.10;;
16928;SDS011;8581;47.334;11.190;2022-12-18T07:00:49;17.03;;;2.90;;
16928;SDS011;8581;47.334;11.190;2022-12-18T07:03:20;6.13;;;2.60;;
16928;SDS011;8581;47.334;11.190;2022-12-18T07:05:52;8.77;;;2.90;;
16928;SDS011;8581;47.334;11.190;2022-12-18T07:08:24;6.40;;;3.00;;
16928;SDS011;8581;47.334;11.190;2022-12-18T07:10:55;7.33;;;3.40;;
16928;SDS011;8581;47.334;11.190;2022-12-18T07:13:27;8.00;;;5.77;;
16928;SDS011;8581;47.334;11.190;2022-12-18T07:16:03;11.87;;;7.23;;
16928;SDS011;8581;47.334;11.190;2022-12-18T07:18:38;8.27;;;5.40;;
16928;SDS011;8581;47.334;11.190;2022-12-18T07:21:11;7.87;;;4.57;;
16928;SDS011;8581;47.334;11.190;2022-12-18T07:23:42;9.70;;;6.03;;
16928;SDS011;8581;47.334;11.190;2022-12-18T07:26:14;12.87;;;7.10;;
16928;SDS011;8581;47.334;11.190;2022-12-18T07:28:45;6.30;;;5.47;;
16928;SDS011;8581;47.334;11.190;2022-12-18T07:31:18;8.27;;;5.03;;
16928;SDS011;8581;47.334;11.190;2022-12-18T07:33:48;7.97;;;5.27;;
16928;SDS011;8581;47.334;11.190;2022-12-18T07:36:23;9.83;;;5.83;;
16928;SDS011;8581;47.334;11.190;2022-12-18T07:38:54;9.27;;;6.60;;
16928;SDS011;8581;47.334;11.190;2022-12-18T07:41:26;8.23;;;5.80;;
16928;SDS011;8581;47.334;11.190;2022-12-18T07:43:57;8.43;;;5.53;;
16928;SDS011;8581;47.334;11.190;2022-12-18T07:46:29;6.70;;;5.53;;
16928;SDS011;8581;47.334;11.190;2022-12-18T07:49:01;7.03;;;5.53;;
16928;SDS011;8581;47.334;11.190;2022-12-18T07:51:33;7.83;;;5.17;;
16928;SDS011;8581;47.334;11.190;2022-12-18T07:54:05;9.23;;;4.53;;
16928;SDS011;8581;47.334;11.190;2022-12-18T07:56:36;5.90;;;3.17;;
16928;SDS011;8581;47.334;11.190;2022-12-18T07:59:08;5.90;;;3.90;;
16928;SDS011;8581;47.334;11.190;2022-12-18T08:01:40;6.63;;;3.73;;
16928;SDS011;8581;47.334;11.190;2022-12-18T08:04:11;4.70;;;3.70;;
16928;SDS011;8581;47.334;11.190;2022-12-18T08:06:43;5.47;;;3.70;;
16928;SDS011;8581;47.334;11.190;2022-12-18T08:09:15;5.87;;;3.57;;
16928;SDS011;8581;47.334;11.190;2022-12-18T08:11:46;4.47;;;3.40;;
16928;SDS011;8581;47.334;11.190;2022-12-18T08:14:18;6.43;;;4.50;;
16928;SDS011;8581;47.334;11.190;2022-12-18T08:16:50;5.70;;;4.33;;
16928;SDS011;8581;47.334;11.190;2022-12-18T08:19:21;11.53;;;10.37;;
16928;SDS011;8581;47.334;11.190;2022-12-18T08:21:53;5.87;;;4.33;;
16928;SDS011;8581;47.334;11.190;2022-12-18T08:24:25;6.97;;;6.00;;
16928;SDS011;8581;47.334;11.190;2022-12-18T08:26:57;12.43;;;9.47;;
16928;SDS011;8581;47.334;11.190;2022-12-18T08:29:29;12.63;;;9.90;;
16928;SDS011;8581;47.334;11.190;2022-12-18T08:32:00;12.47;;;11.13;;
16928;SDS011;8581;47.334;11.190;2022-12-18T08:34:32;11.57;;;10.33;;
16928;SDS011;8581;47.334;11.190;2022-12-18T08:37:04;12.37;;;11.07;;
16928;SDS011;8581;47.334;11.190;2022-12-18T08:39:35;11.77;;;9.90;;
16928;SDS011;8581;47.334;11.190;2022-12-18T08:42:07;13.37;;;11.33;;
16928;SDS011;8581;47.334;11.190;2022-12-18T08:44:44;12.83;;;11.53;;
16928;SDS011;8581;47.334;11.190;2022-12-18T08:47:16;11.93;;;10.03;;
16928;SDS011;8581;47.334;11.190;2022-12-18T08:49:47;10.10;;;9.07;;
16928;SDS011;8581;47.334;11.190;2022-12-18T08:52:19;13.13;;;11.40;;
16928;SDS011;8581;47.334;11.190;2022-12-18T08:54:51;10.30;;;8.70;;
16928;SDS011;8581;47.334;11.190;2022-12-18T08:57:22;6.07;;;4.87;;
16928;SDS011;8581;47.334;11.190;2022-12-18T08:59:54;6.73;;;6.00;;
16928;SDS011;8581;47.334;11.190;2022-12-18T09:02:25;6.50;;;4.47;;
16928;SDS011;8581;47.334;11.190;2022-12-18T09:04:57;6.17;;;4.40;;
16928;SDS011;8581;47.334;11.190;2022-12-18T09:07:29;5.50;;;3.83;;
16928;SDS011;8581;47.334;11.190;2022-12-18T09:10:00;5.23;;;4.07;;
16928;SDS011;8581;47.334;11.190;2022-12-18T09:12:32;5.13;;;3.77;;
16928;SDS011;8581;47.334;11.190;2022-12-18T09:15:05;3.07;;;2.20;;
16928;SDS011;8581;47.334;11.190;2022-12-18T09:17:38;3.97;;;2.50;;
16928;SDS011;8581;47.334;11.190;2022-12-18T09:20:14;2.17;;;1.70;;
16928;SDS011;8581;47.334;11.190;2022-12-18T09:22:46;1.40;;;1.20;;
16928;SDS011;8581;47.334;11.190;2022-12-18T09:25:18;1.20;;;0.83;;
16928;SDS011;8581;47.334;11.190;2022-12-18T09:27:50;1.93;;;1.20;;
16928;SDS011;8581;47.334;11.190;2022-12-18T09:30:21;2.30;;;1.03;;
16928;SDS011;8581;47.334;11.190;2022-12-18T09:32:53;1.20;;;1.00;;
16928;SDS011;8581;47.334;11.190;2022-12-18T09:35:24;1.00;;;0.90;;
16928;SDS011;8581;47.334;11.190;2022-12-18T09:38:05;2.07;;;0.90;;
16928;SDS011;8581;47.334;11.190;2022-12-18T09:40:41;1.83;;;1.47;;
16928;SDS011;8581;47.334;11.190;2022-12-18T09:43:16;3.47;;;1.97;;
16928;SDS011;8581;47.334;11.190;2022-12-18T09:45:51;2.43;;;1.83;;
16928;SDS011;8581;47.334;11.190;2022-12-18T09:48:26;1.57;;;1.47;;
16928;SDS011;8581;47.334;11.190;2022-12-18T09:50:58;1.47;;;1.30;;
16928;SDS011;8581;47.334;11.190;2022-12-18T09:53:30;2.40;;;1.50;;
16928;SDS011;8581;47.334;11.190;2022-12-18T09:56:00;1.87;;;1.20;;
16928;SDS011;8581;47.334;11.190;2022-12-18T09:58:34;2.67;;;1.20;;
16928;SDS011;8581;47.334;11.190;2022-12-18T10:01:09;2.57;;;1.00;;
16928;SDS011;8581;47.334;11.190;2022-12-18T10:03:38;1.23;;;0.93;;
16928;SDS011;8581;47.334;11.190;2022-12-18T10:06:14;1.43;;;0.90;;
16928;SDS011;8581;47.334;11.190;2022-12-18T10:08:58;1.53;;;0.87;;
16928;SDS011;8581;47.334;11.190;2022-12-18T10:14:40;1.10;;;0.80;;
16928;SDS011;8581;47.334;11.190;2022-12-18T10:20:21;1.20;;;0.73;;
16928;SDS011;8581;47.334;11.190;2022-12-18T10:22:57;2.20;;;1.00;;
16928;SDS011;8581;47.334;11.190;2022-12-18T10:25:56;1.23;;;1.00;;
16928;SDS011;8581;47.334;11.190;2022-12-18T10:28:39;1.30;;;1.10;;
16928;SDS011;8581;47.334;11.190;2022-12-18T10:31:14;1.20;;;1.10;;
16928;SDS011;8581;47.334;11.190;2022-12-18T10:33:48;1.10;;;1.00;;
16928;SDS011;8581;47.334;11.190;2022-12-18T10:36:20;2.43;;;1.30;;
16928;SDS011;8581;47.334;11.190;2022-12-18T10:38:51;1.67;;;1.10;;
16928;SDS011;8581;47.334;11.190;2022-12-18T10:41:24;0.70;;;0.70;;
16928;SDS011;8581;47.334;11.190;2022-12-18T10:44:10;0.70;;;0.70;;
16928;SDS011;8581;47.334;11.190;2022-12-18T10:46:50;1.20;;;0.80;;
16928;SDS011;8581;47.334;11.190;2022-12-18T10:49:26;0.63;;;0.60;;
16928;SDS011;8581;47.334;11.190;2022-12-18T10:54:36;1.10;;;1.00;;
16928;SDS011;8581;47.334;11.190;2022-12-18T10:59:51;2.27;;;1.43;;
16928;SDS011;8581;47.334;11.190;2022-12-18T11:02:28;1.43;;;1.23;;
16928;SDS011;8581;47.334;11.190;2022-12-18T11:04:59;2.10;;;1.60;;
16928;SDS011;8581;47.334;11.190;2022-12-18T11:07:49;1.23;;;0.80;;
16928;SDS011;8581;47.334;11.190;2022-12-18T11:10:21;6.07;;;4.83;;
16928;SDS011;8581;47.334;11.190;2022-12-18T11:12:52;4.23;;;3.80;;
16928;SDS011;8581;47.334;11.190;2022-12-18T11:15:26;1.97;;;1.50;;
16928;SDS011;8581;47.334;11.190;2022-12-18T11:17:57;4.10;;;3.70;;
16928;SDS011;8581;47.334;11.190;2022-12-18T11:20:34;2.40;;;2.10;;
16928;SDS011;8581;47.334;11.190;2022-12-18T11:23:05;3.00;;;1.20;;
16928;SDS011;8581;47.334;11.190;2022-12-18T11:25:35;0.70;;;0.70;;
16928;SDS011;8581;47.334;11.190;2022-12-18T11:30:54;1.13;;;0.60;;
16928;SDS011;8581;47.334;11.190;2022-12-18T11:33:28;2.83;;;0.70;;
16928;SDS011;8581;47.334;11.190;2022-12-18T11:36:01;0.63;;;0.60;;
16928;SDS011;8581;47.334;11.190;2022-12-18T11:38:35;1.63;;;0.90;;
16928;SDS011;8581;47.334;11.190;2022-12-18T11:41:19;2.23;;;1.70;;
16928;SDS011;8581;47.334;11.190;2022-12-18T11:43:56;35.33;;;25.07;;
16928;SDS011;8581;47.334;11.190;2022-12-18T11:46:32;3.57;;;2.80;;
16928;SDS011;8581;47.334;11.190;2022-12-18T11:49:11;29.27;;;22.07;;
16928;SDS011;8581;47.334;11.190;2022-12-18T11:51:45;21.50;;;16.05;;
16928;SDS011;8581;47.334;11.190;2022-12-18T11:54:16;11.25;;;8.48;;
16928;SDS011;8581;47.334;11.190;2022-12-18T11:56:48;5.45;;;2.40;;
16928;SDS011;8581;47.334;11.190;2022-12-18T11:59:27;1.00;;;0.90;;
16928;SDS011;8581;47.334;11.190;2022-12-18T12:02:11;1.60;;;0.90;;
16928;SDS011;8581;47.334;11.190;2022-12-18T12:05:12;1.50;;;0.80;;
16928;SDS011;8581;47.334;11.190;2022-12-18T12:07:31;1.70;;;1.00;;
16928;SDS011;8581;47.334;11.190;2022-12-18T12:10:03;1.07;;;1.00;;
16928;SDS011;8581;47.334;11.190;2022-12-18T12:12:56;1.30;;;1.10;;
16928;SDS011;8581;47.334;11.190;2022-12-18T12:18:29;1.60;;;1.20;;
16928;SDS011;8581;47.334;11.190;2022-12-18T12:21:17;0.90;;;0.90;;
16928;SDS011;8581;47.334;11.190;2022-12-18T12:23:59;1.55;;;1.00;;
16928;SDS011;8581;47.334;11.190;2022-12-18T12:26:34;1.30;;;1.00;;
16928;SDS011;8581;47.334;11.190;2022-12-18T12:29:32;1.10;;;1.00;;
16928;SDS011;8581;47.334;11.190;2022-12-18T12:35:03;0.90;;;0.90;;
16928;SDS011;8581;47.334;11.190;2022-12-18T12:37:46;2.33;;;1.17;;
16928;SDS011;8581;47.334;11.190;2022-12-18T12:40:20;1.40;;;1.30;;
16928;SDS011;8581;47.334;11.190;2022-12-18T12:42:53;2.35;;;1.32;;
16928;SDS011;8581;47.334;11.190;2022-12-18T12:45:33;1.52;;;1.42;;
16928;SDS011;8581;47.334;11.190;2022-12-18T12:48:31;2.17;;;1.75;;
16928;SDS011;8581;47.334;11.190;2022-12-18T12:51:16;1.92;;;1.67;;
16928;SDS011;8581;47.334;11.190;2022-12-18T12:53:53;2.27;;;1.45;;
16928;SDS011;8581;47.334;11.190;2022-12-18T12:56:25;1.42;;;1.32;;
16928;SDS011;8581;47.334;11.190;2022-12-18T12:59:19;2.92;;;1.45;;
16928;SDS011;8581;47.334;11.190;2022-12-18T13:01:59;1.40;;;1.05;;
16928;SDS011;8581;47.334;11.190;2022-12-18T13:07:26;1.65;;;1.07;;
16928;SDS011;8581;47.334;11.190;2022-12-18T13:10:12;3.80;;;1.37;;
16928;SDS011;8581;47.334;11.190;2022-12-18T13:12:59;3.02;;;1.50;;
16928;SDS011;8581;47.334;11.190;2022-12-18T13:15:31;1.57;;;1.32;;
16928;SDS011;8581;47.334;11.190;2022-12-18T13:18:11;1.67;;;1.30;;
16928;SDS011;8581;47.334;11.190;2022-12-18T13:21:02;2.25;;;1.57;;
16928;SDS011;8581;47.334;11.190;2022-12-18T13:23:38;4.30;;;1.85;;
16928;SDS011;8581;47.334;11.190;2022-12-18T13:29:02;1.77;;;1.42;;
16928;SDS011;8581;47.334;11.190;2022-12-18T13:31:57;1.98;;;1.50;;
16928;SDS011;8581;47.334;11.190;2022-12-18T13:34:28;3.40;;;2.00;;
16928;SDS011;8581;47.334;11.190;2022-12-18T13:39:44;3.67;;;1.82;;
16928;SDS011;8581;47.334;11.190;2022-12-18T13:47:52;3.50;;;1.60;;
16928;SDS011;8581;47.334;11.190;2022-12-18T13:50:24;2.87;;;1.90;;
16928;SDS011;8581;47.334;11.190;2022-12-18T13:52:56;3.97;;;1.30;;
16928;SDS011;8581;47.334;11.190;2022-12-18T13:55:28;1.73;;;1.40;;
16928;SDS011;8581;47.334;11.190;2022-12-18T13:58:03;1.67;;;1.50;;
16928;SDS011;8581;47.334;11.190;2022-12-18T14:00:34;4.40;;;1.60;;
16928;SDS011;8581;47.334;11.190;2022-12-18T14:03:23;2.10;;;1.70;;
16928;SDS011;8581;47.334;11.190;2022-12-18T14:05:58;2.60;;;1.73;;
16928;SDS011;8581;47.334;11.190;2022-12-18T14:08:30;2.03;;;1.53;;
16928;SDS011;8581;47.334;11.190;2022-12-18T14:10:59;2.20;;;2.00;;
16928;SDS011;8581;47.334;11.190;2022-12-18T14:13:31;3.80;;;1.90;;
16928;SDS011;8581;47.334;11.190;2022-12-18T14:16:03;5.57;;;2.13;;
16928;SDS011;8581;47.334;11.190;2022-12-18T14:21:26;3.20;;;1.70;;
16928;SDS011;8581;47.334;11.190;2022-12-18T14:24:03;3.83;;;1.90;;
16928;SDS011;8581;47.334;11.190;2022-12-18T14:26:35;4.67;;;2.73;;
16928;SDS011;8581;47.334;11.190;2022-12-18T14:34:31;3.23;;;2.07;;
16928;SDS011;8581;47.334;11.190;2022-12-18T14:37:03;2.43;;;2.00;;
16928;SDS011;8581;47.334;11.190;2022-12-18T14:39:34;3.30;;;2.40;;
16928;SDS011;8581;47.334;11.190;2022-12-18T14:42:09;6.00;;;2.77;;
16928;SDS011;8581;47.334;11.190;2022-12-18T14:44:38;2.93;;;2.67;;
16928;SDS011;8581;47.334;11.190;2022-12-18T14:47:13;4.37;;;2.70;;
16928;SDS011;8581;47.334;11.190;2022-12-18T14:49:41;4.70;;;4.07;;
16928;SDS011;8581;47.334;11.190;2022-12-18T14:52:20;5.77;;;4.77;;
16928;SDS011;8581;47.334;11.190;2022-12-18T14:54:50;7.23;;;6.47;;
16928;SDS011;8581;47.334;11.190;2022-12-18T14:57:23;10.33;;;8.50;;
16928;SDS011;8581;47.334;11.190;2022-12-18T14:59:55;6.77;;;6.10;;
16928;SDS011;8581;47.334;11.190;2022-12-18T15:02:26;8.00;;;6.73;;
16928;SDS011;8581;47.334;11.190;2022-12-18T15:05:02;5.90;;;3.93;;
16928;SDS011;8581;47.334;11.190;2022-12-18T15:10:14;6.20;;;4.70;;
16928;SDS011;8581;47.334;11.190;2022-12-18T15:12:47;7.28;;;4.40;;
16928;SDS011;8581;47.334;11.190;2022-12-18T15:20:59;5.60;;;5.00;;
16928;SDS011;8581;47.334;11.190;2022-12-18T15:23:36;4.07;;;3.20;;
16928;SDS011;8581;47.334;11.190;2022-12-18T15:26:08;4.53;;;3.33;;
16928;SDS011;8581;47.334;11.190;2022-12-18T15:28:43;6.97;;;3.27;;
16928;SDS011;8581;47.334;11.190;2022-12-18T15:31:23;5.50;;;3.10;;
16928;SDS011;8581;47.334;11.190;2022-12-18T15:34:12;5.67;;;3.70;;
16928;SDS011;8581;47.334;11.190;2022-12-18T15:36:42;4.93;;;2.53;;
16928;SDS011;8581;47.334;11.190;2022-12-18T15:39:14;6.77;;;3.43;;
16928;SDS011;8581;47.334;11.190;2022-12-18T15:41:46;3.97;;;2.90;;
16928;SDS011;8581;47.334;11.190;2022-12-18T15:44:35;7.37;;;4.13;;
16928;SDS011;8581;47.334;11.190;2022-12-18T15:47:09;7.57;;;3.73;;
16928;SDS011;8581;47.334;11.190;2022-12-18T15:49:41;5.13;;;3.43;;
16928;SDS011;8581;47.334;11.190;2022-12-18T15:52:12;4.57;;;2.93;;
16928;SDS011;8581;47.334;11.190;2022-12-18T15:54:44;3.80;;;3.10;;
16928;SDS011;8581;47.334;11.190;2022-12-18T15:57:36;5.83;;;3.40;;
16928;SDS011;8581;47.334;11.190;2022-12-18T16:00:11;6.33;;;4.17;;
16928;SDS011;8581;47.334;11.190;2022-12-18T16:02:41;6.10;;;3.70;;
16928;SDS011;8581;47.334;11.190;2022-12-18T16:05:14;5.97;;;2.97;;
16928;SDS011;8581;47.334;11.190;2022-12-18T16:07:45;4.97;;;2.90;;
16928;SDS011;8581;47.334;11.190;2022-12-18T16:10:17;6.17;;;2.70;;
16928;SDS011;8581;47.334;11.190;2022-12-18T16:12:54;6.37;;;4.17;;
16928;SDS011;8581;47.334;11.190;2022-12-18T16:15:27;7.83;;;6.10;;
16928;SDS011;8581;47.334;11.190;2022-12-18T16:18:00;5.40;;;4.50;;
16928;SDS011;8581;47.334;11.190;2022-12-18T16:20:41;4.03;;;3.60;;
16928;SDS011;8581;47.334;11.190;2022-12-18T16:23:12;4.53;;;3.60;;